Terminal Aerodrome Forecast
Issued by NWS

Home | Current Version | Previous Version | Text Only | Print | Product List | Glossary On
Versions: 1 2 3 4 5 6 7 8 9 10 11 12
000
FTUS42 KTAE 282300
TAFECP
TAF
KECP 282320Z 2900/2924 00000KT P6SM FEW070 BKN250
     FM291400 13005KT P6SM SCT050 BKN250
     FM291700 17008KT 6SM -SHRA BKN050
      TEMPO 2919/2923 3SM TSRA SCT025CB BKN050=

USA.gov is the U.S. government's official web portal to all federal, state and local government web resources and services.